createdAt,value
2023-03-05T00:01:59.980Z,51.88
2023-03-05T00:04:26.522Z,48.67
2023-03-05T00:06:52.921Z,51.88
2023-03-05T00:09:19.356Z,56.42
2023-03-05T00:11:45.836Z,55.05
2023-03-05T00:14:12.635Z,52.67
2023-03-05T00:16:40.031Z,53.60
2023-03-05T00:19:07.329Z,48.92
2023-03-05T00:21:37.877Z,55.53
2023-03-05T00:24:07.045Z,55.83
2023-03-05T00:26:36.681Z,48.72
2023-03-05T00:29:03.728Z,55.22
2023-03-05T00:31:31.783Z,47.22
2023-03-05T00:34:01.552Z,55.42
2023-03-05T00:36:28.474Z,46.42
2023-03-05T00:38:55.443Z,51.15
2023-03-05T00:41:22.293Z,54.63
2023-03-05T00:43:49.066Z,46.72
2023-03-05T00:46:16.324Z,50.05
2023-03-05T00:48:43.090Z,46.60
2023-03-05T00:51:09.818Z,61.10
2023-03-05T00:53:36.458Z,43.83
2023-03-05T00:56:04.551Z,48.65
2023-03-05T00:58:31.165Z,47.13
2023-03-05T01:00:59.157Z,45.45
2023-03-05T01:03:25.670Z,46.28
2023-03-05T01:05:52.197Z,44.95
2023-03-05T01:08:18.676Z,50.08
2023-03-05T01:10:45.068Z,49.65
2023-03-05T01:13:11.936Z,46.30
2023-03-05T01:15:38.333Z,45.53
2023-03-05T01:18:05.016Z,45.85
2023-03-05T01:20:31.455Z,45.25
2023-03-05T01:22:59.173Z,46.10
2023-03-05T01:25:25.739Z,44.40
2023-03-05T01:27:52.613Z,39.78
2023-03-05T01:30:19.453Z,39.42
2023-03-05T01:32:46.616Z,43.28
2023-03-05T01:35:21.813Z,46.40
2023-03-05T01:37:48.542Z,43.80
2023-03-05T01:40:20.251Z,41.75
2023-03-05T01:45:22.165Z,43.97
2023-03-05T01:47:48.953Z,39.22
2023-03-05T01:50:22.693Z,40.55
2023-03-05T01:52:54.713Z,40.75
2023-03-05T01:55:24.492Z,44.08
2023-03-05T01:57:54.885Z,40.60
2023-03-05T02:00:44.160Z,48.63
2023-03-05T02:03:12.134Z,43.25
2023-03-05T02:05:41.156Z,44.45
2023-03-05T02:08:10.256Z,48.47
2023-03-05T02:10:39.989Z,44.50
2023-03-05T02:13:17.311Z,48.25
2023-03-05T02:15:44.301Z,45.30
2023-03-05T02:18:10.927Z,48.75
2023-03-05T02:20:51.768Z,41.85
2023-03-05T02:23:21.076Z,44.17
2023-03-05T02:25:47.642Z,45.80
2023-03-05T02:28:19.881Z,41.85
2023-03-05T02:30:46.604Z,45.65
2023-03-05T02:33:14.864Z,39.42
2023-03-05T02:35:43.665Z,47.75
2023-03-05T02:38:11.719Z,45.90
2023-03-05T02:40:38.299Z,41.10
2023-03-05T02:43:05.194Z,48.50
2023-03-05T02:45:31.714Z,52.50
2023-03-05T02:47:58.172Z,44.67
2023-03-05T02:50:26.140Z,44.22
2023-03-05T02:52:52.980Z,43.97
2023-03-05T02:55:20.800Z,45.08
2023-03-05T02:57:47.241Z,44.33
2023-03-05T03:00:14.397Z,42.40
2023-03-05T03:02:40.843Z,43.67
2023-03-05T03:05:07.786Z,46.90
2023-03-05T03:07:35.899Z,47.17
2023-03-05T03:10:03.725Z,49.67
2023-03-05T03:12:30.137Z,47.88
2023-03-05T03:14:56.601Z,45.10
2023-03-05T03:17:23.089Z,50.58
2023-03-05T03:19:49.513Z,50.90
2023-03-05T03:22:16.200Z,43.53
2023-03-05T03:24:43.580Z,50.97
2023-03-05T03:27:10.523Z,52.58
2023-03-05T03:29:37.037Z,50.30
2023-03-05T03:32:04.613Z,40.58
2023-03-05T03:34:31.090Z,46.08
2023-03-05T03:36:57.522Z,48.47
2023-03-05T03:39:25.455Z,50.38
2023-03-05T03:41:53.519Z,53.17
2023-03-05T03:44:21.246Z,49.17
2023-03-05T03:46:49.162Z,48.85
2023-03-05T03:49:21.188Z,46.70
2023-03-05T03:51:49.900Z,44.90
2023-03-05T03:54:18.321Z,45.00
2023-03-05T03:56:45.402Z,45.42
2023-03-05T03:59:12.536Z,47.78
2023-03-05T04:01:39.161Z,47.05
2023-03-05T04:04:05.867Z,50.15
2023-03-05T04:06:33.331Z,58.25
2023-03-05T04:08:59.808Z,52.60
2023-03-05T04:11:26.451Z,50.95
2023-03-05T04:13:52.856Z,48.25
2023-03-05T04:16:20.571Z,53.00
2023-03-05T04:18:47.733Z,54.60
2023-03-05T04:21:14.180Z,45.75
2023-03-05T04:23:40.820Z,52.00
2023-03-05T04:26:07.305Z,54.58
2023-03-05T04:28:33.899Z,51.45
2023-03-05T04:31:00.298Z,43.10
2023-03-05T04:33:26.798Z,54.47
2023-03-05T04:35:53.308Z,60.97
2023-03-05T04:38:19.772Z,54.05
2023-03-05T04:40:46.536Z,54.42
2023-03-05T04:43:12.992Z,59.15
2023-03-05T04:45:42.984Z,52.20
2023-03-05T04:48:10.646Z,52.15
2023-03-05T04:50:37.543Z,55.10
2023-03-05T04:53:04.356Z,54.30
2023-03-05T04:55:31.124Z,52.40
2023-03-05T04:57:57.818Z,53.45
2023-03-05T05:00:24.846Z,51.85
2023-03-05T05:02:52.292Z,58.72
2023-03-05T05:05:22.639Z,49.05
2023-03-05T05:07:49.055Z,57.45
2023-03-05T05:10:17.116Z,51.75
2023-03-05T05:12:43.634Z,48.97
2023-03-05T05:15:12.718Z,53.38
2023-03-05T05:17:39.167Z,52.58
2023-03-05T05:20:07.567Z,58.80
2023-03-05T05:22:34.957Z,72.00
2023-03-05T05:25:01.881Z,56.78
2023-03-05T05:27:28.365Z,64.38
2023-03-05T05:29:54.788Z,78.57
2023-03-05T05:32:24.016Z,62.53
2023-03-05T05:34:55.157Z,61.47
2023-03-05T05:37:22.275Z,64.22
2023-03-05T05:39:50.265Z,60.72
2023-03-05T05:42:21.845Z,59.33
2023-03-05T05:44:48.617Z,56.05
2023-03-05T05:47:16.152Z,69.13
2023-03-05T05:49:42.874Z,68.75
2023-03-05T05:52:09.688Z,54.67
2023-03-05T05:54:36.473Z,59.22
2023-03-05T05:57:03.087Z,58.13
2023-03-05T05:59:29.716Z,58.30
2023-03-05T06:01:56.243Z,60.75
2023-03-05T06:04:22.730Z,54.20
2023-03-05T06:06:49.183Z,50.28
2023-03-05T06:09:15.708Z,57.55
2023-03-05T06:11:42.154Z,53.70
2023-03-05T06:14:10.620Z,57.83
2023-03-05T06:16:37.052Z,55.92
2023-03-05T06:19:04.670Z,57.30
2023-03-05T06:21:31.748Z,55.97
2023-03-05T06:24:01.174Z,58.80
2023-03-05T06:26:27.632Z,53.45
2023-03-05T06:28:54.776Z,59.40
2023-03-05T06:31:25.453Z,56.33
2023-03-05T06:33:53.788Z,49.33
2023-03-05T06:36:22.530Z,59.55
2023-03-05T06:38:49.592Z,59.80
2023-03-05T06:41:20.225Z,61.05
2023-03-05T06:43:47.943Z,61.42
2023-03-05T06:46:19.115Z,55.65
2023-03-05T06:48:45.989Z,57.28
2023-03-05T06:51:16.394Z,58.80
2023-03-05T06:53:43.984Z,72.30
2023-03-05T06:56:11.384Z,53.38
2023-03-05T06:58:37.788Z,68.15
2023-03-05T07:01:07.724Z,59.25
2023-03-05T07:03:35.887Z,50.20
2023-03-05T07:06:04.865Z,65.25
2023-03-05T07:08:31.767Z,66.40
2023-03-05T07:10:58.437Z,60.58
2023-03-05T07:13:25.086Z,62.35
2023-03-05T07:15:51.678Z,67.15
2023-03-05T07:18:18.148Z,70.88
2023-03-05T07:20:44.655Z,63.65
2023-03-05T07:23:11.066Z,70.93
2023-03-05T07:25:38.291Z,69.00
2023-03-05T07:28:06.444Z,67.68
2023-03-05T07:30:34.314Z,62.35
2023-03-05T07:33:02.018Z,68.75
2023-03-05T07:35:28.713Z,66.55
2023-03-05T07:37:55.851Z,70.35
2023-03-05T07:40:22.469Z,74.10
2023-03-05T07:42:48.899Z,76.30
2023-03-05T07:45:23.859Z,76.13
2023-03-05T07:47:52.504Z,84.55
2023-03-05T07:50:19.105Z,73.10
2023-03-05T07:52:45.508Z,71.05
2023-03-05T07:55:12.077Z,81.43
2023-03-05T07:57:38.959Z,81.65
2023-03-05T08:00:06.945Z,65.97
2023-03-05T08:02:38.063Z,71.90
2023-03-05T08:05:04.999Z,65.97
2023-03-05T08:07:31.460Z,66.22
2023-03-05T08:09:57.875Z,65.18
2023-03-05T08:12:24.544Z,63.85
2023-03-05T08:14:51.506Z,85.82
2023-03-05T08:17:17.920Z,62.75
2023-03-05T08:19:44.361Z,72.80
2023-03-05T08:22:11.608Z,58.30
2023-03-05T08:24:38.225Z,65.57
2023-03-05T08:27:04.651Z,58.90
2023-03-05T08:29:31.102Z,70.68
2023-03-05T08:31:57.630Z,75.30
2023-03-05T08:34:24.177Z,57.80
2023-03-05T08:36:50.791Z,65.68
2023-03-05T08:39:17.999Z,67.55
2023-03-05T08:41:44.465Z,72.88
2023-03-05T08:44:10.895Z,71.88
2023-03-05T08:46:39.503Z,70.95
2023-03-05T08:49:07.370Z,69.82
2023-03-05T08:51:34.708Z,68.47
2023-03-05T08:54:02.448Z,58.97
2023-03-05T08:56:31.120Z,65.40
2023-03-05T08:58:57.546Z,62.63
2023-03-05T09:01:24.174Z,74.13
2023-03-05T09:03:50.772Z,73.25
2023-03-05T09:06:17.173Z,65.40
2023-03-05T09:08:43.603Z,61.53
2023-03-05T09:11:12.571Z,66.38
2023-03-05T09:13:39.750Z,68.70
2023-03-05T09:16:10.546Z,62.78
2023-03-05T09:18:37.321Z,67.38
2023-03-05T09:21:06.344Z,66.95
2023-03-05T09:23:32.833Z,65.03
2023-03-05T09:25:59.292Z,57.22
2023-03-05T09:28:25.737Z,63.92
2023-03-05T09:30:52.196Z,62.17
2023-03-05T09:33:18.704Z,69.05
2023-03-05T09:35:45.108Z,56.83
2023-03-05T09:38:11.583Z,50.55
2023-03-05T09:40:59.116Z,55.90
2023-03-05T09:44:05.936Z,48.00
2023-03-05T09:46:53.201Z,45.15
2023-03-05T09:49:41.365Z,44.85
2023-03-05T09:52:23.839Z,45.10
2023-03-05T09:54:54.954Z,51.55
2023-03-05T09:57:32.050Z,49.47
2023-03-05T10:00:03.018Z,53.80
2023-03-05T10:02:47.886Z,55.58
2023-03-05T10:05:24.856Z,43.53
2023-03-05T10:08:04.877Z,46.97
2023-03-05T10:10:41.808Z,47.25
2023-03-05T10:13:25.418Z,47.65
2023-03-05T10:15:54.700Z,50.90
2023-03-05T10:18:55.121Z,54.15
2023-03-05T10:21:31.133Z,47.10
2023-03-05T10:24:11.531Z,41.53
2023-03-05T10:26:59.468Z,44.33
2023-03-05T10:29:44.188Z,43.10
2023-03-05T10:32:30.341Z,45.17
2023-03-05T10:35:31.228Z,39.13
2023-03-05T10:38:15.883Z,45.70
2023-03-05T10:40:46.836Z,37.83
2023-03-05T10:43:49.056Z,40.35
2023-03-05T10:46:18.525Z,37.92
2023-03-05T10:48:50.881Z,38.35
2023-03-05T10:51:34.865Z,36.45
2023-03-05T10:54:28.930Z,35.85
2023-03-05T10:57:16.376Z,38.90
2023-03-05T10:59:48.678Z,41.22
2023-03-05T11:02:15.228Z,36.88
2023-03-05T11:04:41.946Z,40.15
2023-03-05T11:07:28.290Z,46.70
2023-03-05T11:10:01.780Z,41.67
2023-03-05T11:12:30.188Z,41.85
2023-03-05T11:15:11.944Z,43.67
2023-03-05T11:17:48.858Z,39.30
2023-03-05T11:20:27.606Z,47.42
2023-03-05T11:23:13.042Z,44.53
2023-03-05T11:25:48.613Z,39.17
2023-03-05T11:28:31.981Z,40.20
2023-03-05T11:31:01.357Z,42.67
2023-03-05T11:33:28.698Z,43.13
2023-03-05T11:36:23.028Z,34.53
2023-03-05T11:39:00.011Z,34.08
2023-03-05T11:41:43.678Z,33.42
2023-03-05T11:44:34.179Z,41.95
2023-03-05T11:47:11.997Z,36.80
2023-03-05T11:49:44.707Z,37.40
2023-03-05T11:52:18.230Z,37.22
2023-03-05T11:54:53.632Z,35.83
2023-03-05T11:57:23.973Z,40.92
2023-03-05T11:59:55.151Z,35.67
2023-03-05T12:02:27.703Z,33.78
2023-03-05T12:04:55.919Z,35.50
2023-03-05T12:07:33.296Z,36.60
2023-03-05T12:10:00.994Z,40.30
2023-03-05T12:13:22.320Z,37.33
2023-03-05T12:15:51.656Z,39.90
2023-03-05T12:18:33.745Z,41.15
2023-03-05T12:21:18.551Z,40.08
2023-03-05T12:23:48.497Z,40.65
2023-03-05T12:26:15.428Z,36.40
2023-03-05T12:28:41.852Z,31.48
2023-03-05T12:31:08.282Z,33.20
2023-03-05T12:33:41.689Z,41.45
2023-03-05T12:36:17.193Z,34.70
2023-03-05T12:38:46.382Z,32.33
2023-03-05T12:41:22.022Z,35.05
2023-03-05T12:44:06.832Z,35.15
2023-03-05T12:46:35.929Z,35.45
2023-03-05T12:49:17.662Z,35.33
2023-03-05T12:51:46.206Z,38.90
2023-03-05T12:54:36.085Z,36.97
2023-03-05T12:57:06.286Z,34.53
2023-03-05T13:00:05.117Z,34.65
2023-03-05T13:02:38.502Z,37.58
2023-03-05T13:05:21.570Z,35.40
2023-03-05T13:07:49.316Z,33.75
2023-03-05T13:10:23.910Z,35.72
2023-03-05T13:12:55.711Z,41.22
2023-03-05T13:15:24.471Z,33.42
2023-03-05T13:18:03.396Z,36.67
2023-03-05T13:20:34.452Z,27.70
2023-03-05T13:23:16.185Z,39.72
2023-03-05T13:25:44.067Z,44.30
2023-03-05T13:28:15.736Z,42.70
2023-03-05T13:31:03.470Z,39.90
2023-03-05T13:33:35.595Z,37.00
2023-03-05T13:36:03.004Z,37.10
2023-03-05T13:38:38.018Z,37.25
2023-03-05T13:41:20.086Z,53.28
2023-03-05T13:44:00.713Z,48.38
2023-03-05T13:46:39.003Z,43.07
2023-03-05T13:49:26.109Z,65.70
2023-03-05T13:51:54.992Z,37.83
2023-03-05T13:54:23.544Z,40.15
2023-03-05T13:56:59.366Z,47.83
2023-03-05T13:59:31.258Z,39.08
2023-03-05T14:01:59.868Z,37.85
2023-03-05T14:04:37.313Z,38.75
2023-03-05T14:07:07.787Z,40.60
2023-03-05T14:09:37.257Z,39.00
2023-03-05T14:12:22.409Z,46.47
2023-03-05T14:14:49.205Z,39.58
2023-03-05T14:17:41.485Z,40.13
2023-03-05T14:20:13.928Z,36.55
2023-03-05T14:22:43.516Z,37.17
2023-03-05T14:25:37.579Z,38.30
2023-03-05T14:28:07.592Z,36.97
2023-03-05T14:30:36.141Z,38.97
2023-03-05T14:33:03.377Z,38.88
2023-03-05T14:35:30.643Z,39.40
2023-03-05T14:37:59.706Z,37.70
2023-03-05T14:40:32.661Z,34.17
2023-03-05T14:43:06.994Z,39.55
2023-03-05T14:45:38.455Z,42.88
2023-03-05T14:48:07.004Z,35.03
2023-03-05T14:50:37.059Z,35.25
2023-03-05T14:53:08.489Z,38.10
2023-03-05T14:58:12.634Z,35.05
2023-03-05T15:00:39.225Z,36.33
2023-03-05T15:03:05.793Z,36.35
2023-03-05T15:05:32.992Z,43.65
2023-03-05T15:07:59.534Z,38.42
2023-03-05T15:10:26.552Z,44.90
2023-03-05T15:12:53.468Z,45.75
2023-03-05T15:15:21.700Z,43.50
2023-03-05T15:17:51.629Z,41.53
2023-03-05T15:20:22.564Z,41.63
2023-03-05T15:22:49.062Z,43.88
2023-03-05T15:25:15.788Z,36.45
2023-03-05T15:27:42.350Z,39.20
2023-03-05T15:30:14.153Z,44.08
2023-03-05T15:32:40.655Z,34.92
2023-03-05T15:35:08.173Z,43.72
2023-03-05T15:37:34.574Z,37.08
2023-03-05T15:40:00.941Z,40.20
2023-03-05T15:42:27.414Z,41.00
2023-03-05T15:44:53.831Z,42.42
2023-03-05T15:47:20.280Z,36.83
2023-03-05T15:49:46.740Z,42.17
2023-03-05T15:52:14.182Z,45.33
2023-03-05T15:54:40.624Z,39.70
2023-03-05T15:57:10.419Z,39.47
2023-03-05T15:59:37.297Z,44.00
2023-03-05T16:02:03.924Z,46.85
2023-03-05T16:04:30.766Z,42.17
2023-03-05T16:07:02.847Z,39.53
2023-03-05T16:09:37.141Z,41.05
2023-03-05T16:12:08.606Z,42.30
2023-03-05T16:17:03.427Z,39.05
2023-03-05T16:19:30.661Z,43.53
2023-03-05T16:21:57.055Z,42.28
2023-03-05T16:24:23.523Z,41.85
2023-03-05T16:26:50.000Z,43.13
2023-03-05T16:29:16.442Z,42.90
2023-03-05T16:31:44.852Z,46.78
2023-03-05T16:34:14.058Z,48.90
2023-03-05T16:36:45.939Z,41.80
2023-03-05T16:39:12.335Z,42.45
2023-03-05T16:41:38.740Z,45.95
2023-03-05T16:44:05.128Z,41.67
2023-03-05T16:46:33.942Z,45.05
2023-03-05T16:49:01.328Z,38.15
2023-03-05T16:51:27.793Z,46.65
2023-03-05T16:53:55.705Z,46.50
2023-03-05T16:56:22.351Z,41.38
2023-03-05T16:58:50.481Z,40.08
2023-03-05T17:01:20.176Z,41.05
2023-03-05T17:03:47.640Z,39.33
2023-03-05T17:06:16.928Z,37.95
2023-03-05T17:08:44.630Z,34.88
2023-03-05T17:11:12.630Z,39.70
2023-03-05T17:13:39.618Z,41.40
2023-03-05T17:16:06.873Z,46.38
2023-03-05T17:18:33.530Z,41.30
2023-03-05T17:21:01.572Z,43.70
2023-03-05T17:23:28.360Z,38.78
2023-03-05T17:25:55.160Z,43.60
2023-03-05T17:28:21.656Z,41.78
2023-03-05T17:30:48.081Z,45.97
2023-03-05T17:33:14.502Z,43.13
2023-03-05T17:35:46.963Z,42.58
2023-03-05T17:38:13.799Z,52.83
2023-03-05T17:40:40.412Z,60.88
2023-03-05T17:43:06.927Z,50.33
2023-03-05T17:45:35.281Z,67.68
2023-03-05T17:48:01.833Z,66.95
2023-03-05T17:50:28.365Z,51.35
2023-03-05T17:52:55.305Z,51.13
2023-03-05T17:55:24.589Z,52.15
2023-03-05T17:57:52.068Z,47.83
2023-03-05T18:00:24.275Z,47.08
2023-03-05T18:02:51.064Z,51.10
2023-03-05T18:05:20.054Z,55.67
2023-03-05T18:07:46.942Z,59.13
2023-03-05T18:10:16.073Z,55.80
2023-03-05T18:12:43.280Z,59.00
2023-03-05T18:15:12.421Z,54.75
2023-03-05T18:17:39.029Z,54.35
2023-03-05T18:20:07.182Z,55.33
2023-03-05T18:22:34.032Z,56.40
2023-03-05T18:25:00.454Z,52.17
2023-03-05T18:27:27.044Z,52.70
2023-03-05T18:29:54.218Z,50.75
2023-03-05T18:32:22.203Z,47.15
2023-03-05T18:34:50.587Z,56.78
2023-03-05T18:37:17.249Z,57.50
2023-03-05T18:39:43.701Z,52.17
2023-03-05T18:42:13.817Z,53.30
2023-03-05T18:44:40.968Z,47.15
2023-03-05T18:47:07.412Z,46.28
2023-03-05T18:49:33.957Z,43.95
2023-03-05T18:52:00.444Z,53.63
2023-03-05T18:54:26.830Z,53.40
2023-03-05T18:56:53.267Z,47.88
2023-03-05T18:59:19.676Z,52.40
2023-03-05T19:01:46.182Z,48.45
2023-03-05T19:04:12.693Z,46.03
2023-03-05T19:06:39.166Z,45.45
2023-03-05T19:09:12.087Z,49.30
2023-03-05T19:11:38.532Z,48.13
2023-03-05T19:14:04.942Z,48.05
2023-03-05T19:16:38.202Z,53.35
2023-03-05T19:19:19.526Z,45.60
2023-03-05T19:21:48.629Z,48.47
2023-03-05T19:24:15.555Z,42.92
2023-03-05T19:26:43.386Z,50.75
2023-03-05T19:29:10.096Z,58.60
2023-03-05T19:31:37.463Z,55.88
2023-03-05T19:34:04.169Z,52.00
2023-03-05T19:36:31.819Z,45.97
2023-03-05T19:38:58.309Z,48.38
2023-03-05T19:41:26.151Z,45.20
2023-03-05T19:43:52.577Z,48.17
2023-03-05T19:46:19.345Z,47.78
2023-03-05T19:48:46.429Z,42.00
2023-03-05T19:51:17.656Z,42.45
2023-03-05T19:53:44.229Z,50.58
2023-03-05T19:56:12.436Z,43.92
2023-03-05T19:58:38.992Z,38.20
2023-03-05T20:01:20.417Z,41.15
2023-03-05T20:03:49.757Z,40.55
2023-03-05T20:06:16.818Z,54.40
2023-03-05T20:08:44.368Z,53.92
2023-03-05T20:11:12.898Z,42.75
2023-03-05T20:13:39.716Z,41.50
2023-03-05T20:16:15.894Z,38.58
2023-03-05T20:18:42.540Z,42.58
2023-03-05T20:21:08.965Z,47.10
2023-03-05T20:23:35.578Z,48.40
2023-03-05T20:26:04.550Z,49.30
2023-03-05T20:28:31.644Z,42.63
2023-03-05T20:30:59.556Z,45.90
2023-03-05T20:33:27.544Z,44.88
2023-03-05T20:35:56.279Z,48.10
2023-03-05T20:38:30.195Z,65.40
2023-03-05T20:40:59.488Z,51.25
2023-03-05T20:43:34.110Z,44.65
2023-03-05T20:46:01.439Z,43.03
2023-03-05T20:48:31.624Z,37.67
2023-03-05T20:51:01.285Z,40.63
2023-03-05T20:53:27.767Z,49.17
2023-03-05T20:55:54.394Z,49.75
2023-03-05T20:58:20.800Z,42.72
2023-03-05T21:00:47.317Z,38.90
2023-03-05T21:03:13.852Z,47.33
2023-03-05T21:05:40.256Z,49.67
2023-03-05T21:08:06.712Z,49.55
2023-03-05T21:10:33.276Z,49.88
2023-03-05T21:13:00.999Z,46.65
2023-03-05T21:15:29.800Z,46.08
2023-03-05T21:17:56.651Z,46.58
2023-03-05T21:20:29.394Z,41.97
2023-03-05T21:22:57.081Z,46.55
2023-03-05T21:25:27.418Z,44.00
2023-03-05T21:28:09.387Z,39.15
2023-03-05T21:30:43.444Z,39.50
2023-03-05T21:33:17.112Z,38.63
2023-03-05T21:35:44.351Z,40.80
2023-03-05T21:38:11.904Z,33.97
2023-03-05T21:40:43.585Z,38.35
2023-03-05T21:43:12.600Z,40.88
2023-03-05T21:45:40.115Z,38.85
2023-03-05T21:48:07.265Z,36.88
2023-03-05T21:50:34.013Z,34.08
2023-03-05T21:53:02.036Z,31.73
2023-03-05T21:55:33.063Z,26.33
2023-03-05T21:58:00.190Z,23.95
2023-03-05T22:00:27.173Z,25.63
2023-03-05T22:02:54.249Z,27.42
2023-03-05T22:05:20.815Z,25.95
2023-03-05T22:07:47.289Z,24.90
2023-03-05T22:10:16.580Z,26.67
2023-03-05T22:13:08.141Z,27.30
2023-03-05T22:15:46.609Z,26.27
2023-03-05T22:18:15.405Z,27.27
2023-03-05T22:20:41.959Z,23.02
2023-03-05T22:23:08.689Z,24.42
2023-03-05T22:25:35.582Z,32.58
2023-03-05T22:28:03.957Z,25.13
2023-03-05T22:30:31.942Z,25.02
2023-03-05T22:32:59.910Z,27.13
2023-03-05T22:35:26.775Z,30.80
2023-03-05T22:37:53.482Z,27.33
2023-03-05T22:40:21.167Z,32.35
2023-03-05T22:42:48.056Z,26.23
2023-03-05T22:45:16.963Z,27.27
2023-03-05T22:47:46.284Z,28.02
2023-03-05T22:50:12.799Z,29.30
2023-03-05T22:52:39.275Z,31.65
2023-03-05T22:55:05.995Z,27.15
2023-03-05T22:57:33.182Z,30.40
2023-03-05T22:59:59.585Z,25.20
2023-03-05T23:02:26.056Z,26.35
2023-03-05T23:05:00.320Z,27.42
2023-03-05T23:07:29.234Z,27.30
2023-03-05T23:09:59.368Z,28.15
2023-03-05T23:12:27.636Z,34.47
2023-03-05T23:14:54.290Z,30.23
2023-03-05T23:17:20.754Z,31.27
2023-03-05T23:19:47.144Z,30.60
2023-03-05T23:22:14.391Z,33.88
2023-03-05T23:24:41.280Z,34.55
2023-03-05T23:27:08.671Z,26.48
2023-03-05T23:29:47.091Z,29.08
2023-03-05T23:32:13.897Z,29.63
2023-03-05T23:34:40.306Z,26.58
2023-03-05T23:37:07.161Z,26.50
2023-03-05T23:39:33.576Z,28.25
2023-03-05T23:41:59.987Z,29.50
2023-03-05T23:44:26.382Z,26.83
2023-03-05T23:46:52.781Z,27.50
2023-03-05T23:49:19.264Z,26.13
2023-03-05T23:51:45.695Z,30.40
2023-03-05T23:54:12.112Z,33.17
2023-03-05T23:56:38.500Z,30.20
2023-03-05T23:59:04.897Z,29.55
